sensor_id;sensor_type;location;lat;lon;timestamp;P1;durP1;ratioP1;P2;durP2;ratioP2
52067;SDS011;60237;52.338;21.228;2023-03-11T00:00:10;89.22;;;21.15;;
52067;SDS011;60237;52.338;21.228;2023-03-11T00:02:39;110.57;;;24.08;;
52067;SDS011;60237;52.338;21.228;2023-03-11T00:05:06;75.32;;;21.02;;
52067;SDS011;60237;52.338;21.228;2023-03-11T00:07:33;95.70;;;22.42;;
52067;SDS011;60237;52.338;21.228;2023-03-11T00:09:59;74.10;;;20.25;;
52067;SDS011;60237;52.338;21.228;2023-03-11T00:12:26;60.75;;;20.58;;
52067;SDS011;60237;52.338;21.228;2023-03-11T00:14:52;79.55;;;22.15;;
52067;SDS011;60237;52.338;21.228;2023-03-11T00:17:19;77.30;;;21.85;;
52067;SDS011;60237;52.338;21.228;2023-03-11T00:19:45;59.28;;;20.83;;
52067;SDS011;60237;52.338;21.228;2023-03-11T00:22:11;97.10;;;22.02;;
52067;SDS011;60237;52.338;21.228;2023-03-11T00:24:38;57.58;;;19.88;;
52067;SDS011;60237;52.338;21.228;2023-03-11T00:27:04;95.90;;;20.67;;
52067;SDS011;60237;52.338;21.228;2023-03-11T00:29:32;66.45;;;19.00;;
52067;SDS011;60237;52.338;21.228;2023-03-11T00:31:58;60.13;;;18.75;;
52067;SDS011;60237;52.338;21.228;2023-03-11T00:34:25;56.13;;;17.98;;
52067;SDS011;60237;52.338;21.228;2023-03-11T00:36:52;87.97;;;20.67;;
52067;SDS011;60237;52.338;21.228;2023-03-11T00:39:18;54.78;;;18.05;;
52067;SDS011;60237;52.338;21.228;2023-03-11T00:41:45;55.05;;;17.85;;
52067;SDS011;60237;52.338;21.228;2023-03-11T00:44:11;95.97;;;21.50;;
52067;SDS011;60237;52.338;21.228;2023-03-11T00:46:38;81.68;;;21.00;;
52067;SDS011;60237;52.338;21.228;2023-03-11T00:49:05;63.38;;;19.75;;
52067;SDS011;60237;52.338;21.228;2023-03-11T00:51:31;73.95;;;19.27;;
52067;SDS011;60237;52.338;21.228;2023-03-11T00:53:59;72.47;;;18.52;;
52067;SDS011;60237;52.338;21.228;2023-03-11T00:56:27;80.38;;;19.40;;
52067;SDS011;60237;52.338;21.228;2023-03-11T00:58:54;94.05;;;20.52;;
52067;SDS011;60237;52.338;21.228;2023-03-11T01:01:20;50.85;;;16.90;;
52067;SDS011;60237;52.338;21.228;2023-03-11T01:03:47;85.93;;;18.80;;
52067;SDS011;60237;52.338;21.228;2023-03-11T01:06:15;90.25;;;18.98;;
52067;SDS011;60237;52.338;21.228;2023-03-11T01:08:41;71.95;;;17.00;;
52067;SDS011;60237;52.338;21.228;2023-03-11T01:11:08;83.82;;;18.00;;
52067;SDS011;60237;52.338;21.228;2023-03-11T01:13:35;72.65;;;16.85;;
52067;SDS011;60237;52.338;21.228;2023-03-11T01:16:01;88.53;;;17.55;;
52067;SDS011;60237;52.338;21.228;2023-03-11T01:18:28;61.22;;;15.32;;
52067;SDS011;60237;52.338;21.228;2023-03-11T01:20:54;94.10;;;18.17;;
52067;SDS011;60237;52.338;21.228;2023-03-11T01:23:21;53.28;;;15.38;;
52067;SDS011;60237;52.338;21.228;2023-03-11T01:25:48;45.70;;;14.13;;
52067;SDS011;60237;52.338;21.228;2023-03-11T01:28:14;84.75;;;16.92;;
52067;SDS011;60237;52.338;21.228;2023-03-11T01:30:41;60.28;;;16.20;;
52067;SDS011;60237;52.338;21.228;2023-03-11T01:33:10;71.47;;;16.25;;
52067;SDS011;60237;52.338;21.228;2023-03-11T01:35:38;74.50;;;15.52;;
52067;SDS011;60237;52.338;21.228;2023-03-11T01:38:05;78.88;;;16.63;;
52067;SDS011;60237;52.338;21.228;2023-03-11T01:40:33;53.88;;;15.15;;
52067;SDS011;60237;52.338;21.228;2023-03-11T01:43:05;76.13;;;17.13;;
52067;SDS011;60237;52.338;21.228;2023-03-11T01:45:40;51.35;;;14.35;;
52067;SDS011;60237;52.338;21.228;2023-03-11T01:48:10;83.75;;;16.92;;
52067;SDS011;60237;52.338;21.228;2023-03-11T01:50:38;63.05;;;15.98;;
52067;SDS011;60237;52.338;21.228;2023-03-11T01:53:06;56.40;;;15.27;;
52067;SDS011;60237;52.338;21.228;2023-03-11T01:55:32;69.82;;;16.52;;
52067;SDS011;60237;52.338;21.228;2023-03-11T01:58:00;66.00;;;16.58;;
52067;SDS011;60237;52.338;21.228;2023-03-11T02:00:27;44.15;;;13.48;;
52067;SDS011;60237;52.338;21.228;2023-03-11T02:02:54;75.75;;;15.82;;
52067;SDS011;60237;52.338;21.228;2023-03-11T02:05:23;169.07;;;23.77;;
52067;SDS011;60237;52.338;21.228;2023-03-11T02:07:51;57.45;;;16.23;;
52067;SDS011;60237;52.338;21.228;2023-03-11T02:10:19;66.15;;;17.83;;
52067;SDS011;60237;52.338;21.228;2023-03-11T02:12:47;67.35;;;17.17;;
52067;SDS011;60237;52.338;21.228;2023-03-11T02:15:20;67.88;;;18.38;;
52067;SDS011;60237;52.338;21.228;2023-03-11T02:17:47;93.05;;;19.73;;
52067;SDS011;60237;52.338;21.228;2023-03-11T02:20:26;56.72;;;17.42;;
52067;SDS011;60237;52.338;21.228;2023-03-11T02:22:55;69.97;;;17.48;;
52067;SDS011;60237;52.338;21.228;2023-03-11T02:27:51;72.03;;;17.58;;
52067;SDS011;60237;52.338;21.228;2023-03-11T02:30:22;69.47;;;17.05;;
52067;SDS011;60237;52.338;21.228;2023-03-11T02:32:49;45.15;;;15.35;;
52067;SDS011;60237;52.338;21.228;2023-03-11T02:35:16;47.47;;;14.23;;
52067;SDS011;60237;52.338;21.228;2023-03-11T02:37:44;82.65;;;17.25;;
52067;SDS011;60237;52.338;21.228;2023-03-11T02:40:32;49.60;;;14.68;;
52067;SDS011;60237;52.338;21.228;2023-03-11T02:43:08;96.10;;;19.13;;
52067;SDS011;60237;52.338;21.228;2023-03-11T02:45:36;53.03;;;15.15;;
52067;SDS011;60237;52.338;21.228;2023-03-11T02:48:07;88.20;;;18.08;;
52067;SDS011;60237;52.338;21.228;2023-03-11T02:50:35;54.35;;;16.10;;
52067;SDS011;60237;52.338;21.228;2023-03-11T02:53:03;63.88;;;17.80;;
52067;SDS011;60237;52.338;21.228;2023-03-11T02:55:30;54.17;;;15.55;;
52067;SDS011;60237;52.338;21.228;2023-03-11T02:57:58;63.55;;;15.95;;
52067;SDS011;60237;52.338;21.228;2023-03-11T03:00:25;48.95;;;16.55;;
52067;SDS011;60237;52.338;21.228;2023-03-11T03:05:25;57.58;;;15.35;;
52067;SDS011;60237;52.338;21.228;2023-03-11T03:07:52;59.03;;;16.92;;
52067;SDS011;60237;52.338;21.228;2023-03-11T03:10:19;77.13;;;18.63;;
52067;SDS011;60237;52.338;21.228;2023-03-11T03:12:46;53.97;;;17.70;;
52067;SDS011;60237;52.338;21.228;2023-03-11T03:15:13;97.03;;;20.13;;
52067;SDS011;60237;52.338;21.228;2023-03-11T03:17:42;88.07;;;19.02;;
52067;SDS011;60237;52.338;21.228;2023-03-11T03:20:09;52.35;;;17.00;;
52067;SDS011;60237;52.338;21.228;2023-03-11T03:22:40;52.75;;;16.23;;
52067;SDS011;60237;52.338;21.228;2023-03-11T03:25:08;94.72;;;19.42;;
52067;SDS011;60237;52.338;21.228;2023-03-11T03:27:35;57.17;;;15.75;;
52067;SDS011;60237;52.338;21.228;2023-03-11T03:30:04;84.20;;;18.58;;
52067;SDS011;60237;52.338;21.228;2023-03-11T03:32:31;76.43;;;18.55;;
52067;SDS011;60237;52.338;21.228;2023-03-11T03:34:59;48.42;;;15.45;;
52067;SDS011;60237;52.338;21.228;2023-03-11T03:37:41;71.78;;;16.85;;
52067;SDS011;60237;52.338;21.228;2023-03-11T03:40:08;96.60;;;19.75;;
52067;SDS011;60237;52.338;21.228;2023-03-11T03:42:36;53.97;;;17.55;;
52067;SDS011;60237;52.338;21.228;2023-03-11T03:45:04;96.13;;;19.20;;
52067;SDS011;60237;52.338;21.228;2023-03-11T03:47:34;56.65;;;15.73;;
52067;SDS011;60237;52.338;21.228;2023-03-11T03:50:02;94.03;;;19.50;;
52067;SDS011;60237;52.338;21.228;2023-03-11T03:52:29;92.47;;;19.25;;
52067;SDS011;60237;52.338;21.228;2023-03-11T03:54:56;51.88;;;16.60;;
52067;SDS011;60237;52.338;21.228;2023-03-11T03:57:22;59.40;;;18.85;;
52067;SDS011;60237;52.338;21.228;2023-03-11T03:59:49;126.75;;;23.80;;
52067;SDS011;60237;52.338;21.228;2023-03-11T04:02:16;70.13;;;19.65;;
52067;SDS011;60237;52.338;21.228;2023-03-11T04:04:43;52.20;;;18.45;;
52067;SDS011;60237;52.338;21.228;2023-03-11T04:07:09;96.63;;;19.98;;
52067;SDS011;60237;52.338;21.228;2023-03-11T04:09:41;59.40;;;17.80;;
52067;SDS011;60237;52.338;21.228;2023-03-11T04:12:15;100.40;;;18.20;;
52067;SDS011;60237;52.338;21.228;2023-03-11T04:14:43;58.13;;;16.05;;
52067;SDS011;60237;52.338;21.228;2023-03-11T04:17:10;54.85;;;16.02;;
52067;SDS011;60237;52.338;21.228;2023-03-11T04:19:37;97.32;;;17.60;;
52067;SDS011;60237;52.338;21.228;2023-03-11T04:22:04;93.38;;;16.73;;
52067;SDS011;60237;52.338;21.228;2023-03-11T04:24:30;62.85;;;16.27;;
52067;SDS011;60237;52.338;21.228;2023-03-11T04:26:57;63.42;;;15.35;;
52067;SDS011;60237;52.338;21.228;2023-03-11T04:29:24;49.72;;;15.75;;
52067;SDS011;60237;52.338;21.228;2023-03-11T04:31:52;62.20;;;15.32;;
52067;SDS011;60237;52.338;21.228;2023-03-11T04:34:18;73.00;;;16.58;;
52067;SDS011;60237;52.338;21.228;2023-03-11T04:36:45;64.13;;;17.00;;
52067;SDS011;60237;52.338;21.228;2023-03-11T04:39:14;84.88;;;17.45;;
52067;SDS011;60237;52.338;21.228;2023-03-11T04:41:42;68.30;;;15.88;;
52067;SDS011;60237;52.338;21.228;2023-03-11T04:44:12;77.30;;;19.00;;
52067;SDS011;60237;52.338;21.228;2023-03-11T04:46:39;56.20;;;16.45;;
52067;SDS011;60237;52.338;21.228;2023-03-11T04:49:07;85.38;;;16.98;;
52067;SDS011;60237;52.338;21.228;2023-03-11T04:51:33;51.88;;;14.98;;
52067;SDS011;60237;52.338;21.228;2023-03-11T04:54:00;103.78;;;18.73;;
52067;SDS011;60237;52.338;21.228;2023-03-11T04:56:28;71.50;;;16.45;;
52067;SDS011;60237;52.338;21.228;2023-03-11T04:58:56;46.40;;;14.25;;
52067;SDS011;60237;52.338;21.228;2023-03-11T05:01:24;39.95;;;13.30;;
52067;SDS011;60237;52.338;21.228;2023-03-11T05:03:50;78.43;;;16.73;;
52067;SDS011;60237;52.338;21.228;2023-03-11T05:06:17;69.43;;;15.50;;
52067;SDS011;60237;52.338;21.228;2023-03-11T05:08:45;47.00;;;14.25;;
52067;SDS011;60237;52.338;21.228;2023-03-11T05:11:12;77.80;;;17.60;;
52067;SDS011;60237;52.338;21.228;2023-03-11T05:13:40;50.83;;;15.80;;
52067;SDS011;60237;52.338;21.228;2023-03-11T05:16:06;61.58;;;15.38;;
52067;SDS011;60237;52.338;21.228;2023-03-11T05:18:34;81.00;;;17.77;;
52067;SDS011;60237;52.338;21.228;2023-03-11T05:21:01;54.95;;;15.45;;
52067;SDS011;60237;52.338;21.228;2023-03-11T05:23:30;54.47;;;14.82;;
52067;SDS011;60237;52.338;21.228;2023-03-11T05:25:57;100.38;;;17.65;;
52067;SDS011;60237;52.338;21.228;2023-03-11T05:28:24;46.45;;;14.63;;
52067;SDS011;60237;52.338;21.228;2023-03-11T05:30:52;43.95;;;14.73;;
52067;SDS011;60237;52.338;21.228;2023-03-11T05:33:20;70.47;;;15.35;;
52067;SDS011;60237;52.338;21.228;2023-03-11T05:35:47;43.03;;;13.73;;
52067;SDS011;60237;52.338;21.228;2023-03-11T05:38:14;45.65;;;14.85;;
52067;SDS011;60237;52.338;21.228;2023-03-11T05:40:41;71.70;;;14.77;;
52067;SDS011;60237;52.338;21.228;2023-03-11T05:43:07;45.50;;;13.70;;
52067;SDS011;60237;52.338;21.228;2023-03-11T05:45:37;45.40;;;12.75;;
52067;SDS011;60237;52.338;21.228;2023-03-11T05:48:04;107.07;;;17.90;;
52067;SDS011;60237;52.338;21.228;2023-03-11T05:50:32;48.40;;;13.60;;
52067;SDS011;60237;52.338;21.228;2023-03-11T05:52:59;44.17;;;12.93;;
52067;SDS011;60237;52.338;21.228;2023-03-11T05:55:28;76.43;;;15.32;;
52067;SDS011;60237;52.338;21.228;2023-03-11T05:57:55;67.18;;;14.50;;
52067;SDS011;60237;52.338;21.228;2023-03-11T06:00:21;59.33;;;15.23;;
52067;SDS011;60237;52.338;21.228;2023-03-11T06:02:51;76.88;;;16.48;;
52067;SDS011;60237;52.338;21.228;2023-03-11T06:05:18;49.90;;;15.40;;
52067;SDS011;60237;52.338;21.228;2023-03-11T06:07:47;60.38;;;15.15;;
52067;SDS011;60237;52.338;21.228;2023-03-11T06:10:13;92.07;;;18.05;;
52067;SDS011;60237;52.338;21.228;2023-03-11T06:12:40;56.03;;;15.98;;
52067;SDS011;60237;52.338;21.228;2023-03-11T06:15:32;124.07;;;21.23;;
52067;SDS011;60237;52.338;21.228;2023-03-11T06:17:59;62.92;;;15.65;;
52067;SDS011;60237;52.338;21.228;2023-03-11T06:20:25;38.67;;;13.82;;
52067;SDS011;60237;52.338;21.228;2023-03-11T06:22:52;94.30;;;17.88;;
52067;SDS011;60237;52.338;21.228;2023-03-11T06:25:21;42.92;;;13.07;;
52067;SDS011;60237;52.338;21.228;2023-03-11T06:27:48;60.95;;;16.10;;
52067;SDS011;60237;52.338;21.228;2023-03-11T06:30:19;72.32;;;15.13;;
52067;SDS011;60237;52.338;21.228;2023-03-11T06:33:03;51.28;;;14.30;;
52067;SDS011;60237;52.338;21.228;2023-03-11T06:35:29;84.40;;;15.98;;
52067;SDS011;60237;52.338;21.228;2023-03-11T06:37:56;65.78;;;15.07;;
52067;SDS011;60237;52.338;21.228;2023-03-11T06:40:22;52.88;;;14.18;;
52067;SDS011;60237;52.338;21.228;2023-03-11T06:42:49;76.88;;;14.60;;
52067;SDS011;60237;52.338;21.228;2023-03-11T06:45:17;62.92;;;14.00;;
52067;SDS011;60237;52.338;21.228;2023-03-11T06:47:47;59.17;;;15.35;;
52067;SDS011;60237;52.338;21.228;2023-03-11T06:50:13;90.20;;;16.58;;
52067;SDS011;60237;52.338;21.228;2023-03-11T06:52:39;46.28;;;13.77;;
52067;SDS011;60237;52.338;21.228;2023-03-11T06:55:07;57.72;;;14.93;;
52067;SDS011;60237;52.338;21.228;2023-03-11T06:57:34;101.70;;;18.63;;
52067;SDS011;60237;52.338;21.228;2023-03-11T07:00:04;52.45;;;14.15;;
52067;SDS011;60237;52.338;21.228;2023-03-11T07:02:34;53.78;;;13.60;;
52067;SDS011;60237;52.338;21.228;2023-03-11T07:05:00;60.15;;;14.57;;
52067;SDS011;60237;52.338;21.228;2023-03-11T07:07:27;52.08;;;13.70;;
52067;SDS011;60237;52.338;21.228;2023-03-11T07:09:54;55.40;;;13.98;;
52067;SDS011;60237;52.338;21.228;2023-03-11T07:12:21;87.50;;;16.15;;
52067;SDS011;60237;52.338;21.228;2023-03-11T07:14:57;60.97;;;13.27;;
52067;SDS011;60237;52.338;21.228;2023-03-11T07:17:24;64.10;;;13.63;;
52067;SDS011;60237;52.338;21.228;2023-03-11T07:19:51;54.08;;;12.75;;
52067;SDS011;60237;52.338;21.228;2023-03-11T07:22:18;32.15;;;10.13;;
52067;SDS011;60237;52.338;21.228;2023-03-11T07:24:46;34.28;;;10.48;;
52067;SDS011;60237;52.338;21.228;2023-03-11T07:27:12;78.82;;;12.90;;
52067;SDS011;60237;52.338;21.228;2023-03-11T07:29:39;45.38;;;10.60;;
52067;SDS011;60237;52.338;21.228;2023-03-11T07:32:06;44.38;;;9.75;;
52067;SDS011;60237;52.338;21.228;2023-03-11T07:34:32;46.10;;;11.75;;
52067;SDS011;60237;52.338;21.228;2023-03-11T07:37:02;57.60;;;13.52;;
52067;SDS011;60237;52.338;21.228;2023-03-11T07:39:28;63.65;;;13.73;;
52067;SDS011;60237;52.338;21.228;2023-03-11T07:41:55;58.35;;;12.90;;
52067;SDS011;60237;52.338;21.228;2023-03-11T07:44:27;32.25;;;10.40;;
52067;SDS011;60237;52.338;21.228;2023-03-11T07:46:54;30.85;;;10.40;;
52067;SDS011;60237;52.338;21.228;2023-03-11T07:49:20;62.53;;;11.85;;
52067;SDS011;60237;52.338;21.228;2023-03-11T07:51:47;39.88;;;10.63;;
52067;SDS011;60237;52.338;21.228;2023-03-11T07:54:14;47.38;;;11.60;;
52067;SDS011;60237;52.338;21.228;2023-03-11T07:56:41;38.13;;;11.18;;
52067;SDS011;60237;52.338;21.228;2023-03-11T07:59:07;51.08;;;12.38;;
52067;SDS011;60237;52.338;21.228;2023-03-11T08:01:34;93.70;;;14.75;;
52067;SDS011;60237;52.338;21.228;2023-03-11T08:04:07;69.50;;;13.65;;
52067;SDS011;60237;52.338;21.228;2023-03-11T08:06:35;55.53;;;12.80;;
52067;SDS011;60237;52.338;21.228;2023-03-11T08:09:03;41.42;;;12.23;;
52067;SDS011;60237;52.338;21.228;2023-03-11T08:11:30;104.47;;;17.60;;
52067;SDS011;60237;52.338;21.228;2023-03-11T08:13:57;58.33;;;14.02;;
52067;SDS011;60237;52.338;21.228;2023-03-11T08:16:24;41.97;;;13.45;;
52067;SDS011;60237;52.338;21.228;2023-03-11T08:18:51;59.08;;;14.32;;
52067;SDS011;60237;52.338;21.228;2023-03-11T08:21:19;79.25;;;16.77;;
52067;SDS011;60237;52.338;21.228;2023-03-11T08:23:46;51.30;;;15.18;;
52067;SDS011;60237;52.338;21.228;2023-03-11T08:26:14;61.13;;;14.50;;
52067;SDS011;60237;52.338;21.228;2023-03-11T08:28:41;62.47;;;13.02;;
52067;SDS011;60237;52.338;21.228;2023-03-11T08:31:15;54.83;;;13.60;;
52067;SDS011;60237;52.338;21.228;2023-03-11T08:33:42;63.78;;;13.55;;
52067;SDS011;60237;52.338;21.228;2023-03-11T08:36:09;64.63;;;15.15;;
52067;SDS011;60237;52.338;21.228;2023-03-11T08:38:36;53.88;;;15.10;;
52067;SDS011;60237;52.338;21.228;2023-03-11T08:41:03;64.22;;;15.48;;
52067;SDS011;60237;52.338;21.228;2023-03-11T08:43:29;71.80;;;15.32;;
52067;SDS011;60237;52.338;21.228;2023-03-11T08:45:58;54.30;;;14.18;;
52067;SDS011;60237;52.338;21.228;2023-03-11T08:48:25;60.20;;;14.68;;
52067;SDS011;60237;52.338;21.228;2023-03-11T08:50:51;42.65;;;13.90;;
52067;SDS011;60237;52.338;21.228;2023-03-11T08:53:20;44.95;;;13.73;;
52067;SDS011;60237;52.338;21.228;2023-03-11T08:55:48;64.82;;;16.33;;
52067;SDS011;60237;52.338;21.228;2023-03-11T08:58:14;52.20;;;14.27;;
52067;SDS011;60237;52.338;21.228;2023-03-11T09:00:41;45.50;;;14.10;;
52067;SDS011;60237;52.338;21.228;2023-03-11T09:03:07;63.17;;;16.00;;
52067;SDS011;60237;52.338;21.228;2023-03-11T09:05:34;47.88;;;14.90;;
52067;SDS011;60237;52.338;21.228;2023-03-11T09:08:01;51.95;;;15.43;;
52067;SDS011;60237;52.338;21.228;2023-03-11T09:10:31;67.50;;;17.27;;
52067;SDS011;60237;52.338;21.228;2023-03-11T09:12:57;40.08;;;15.98;;
52067;SDS011;60237;52.338;21.228;2023-03-11T09:15:24;74.65;;;18.58;;
52067;SDS011;60237;52.338;21.228;2023-03-11T09:17:50;68.60;;;18.15;;
52067;SDS011;60237;52.338;21.228;2023-03-11T09:20:18;48.83;;;18.13;;
52067;SDS011;60237;52.338;21.228;2023-03-11T09:22:44;71.20;;;21.35;;
52067;SDS011;60237;52.338;21.228;2023-03-11T09:25:11;98.85;;;24.50;;
52067;SDS011;60237;52.338;21.228;2023-03-11T09:27:38;53.28;;;20.55;;
52067;SDS011;60237;52.338;21.228;2023-03-11T09:30:07;55.95;;;21.20;;
52067;SDS011;60237;52.338;21.228;2023-03-11T09:32:33;85.18;;;22.13;;
52067;SDS011;60237;52.338;21.228;2023-03-11T09:35:00;73.45;;;22.88;;
52067;SDS011;60237;52.338;21.228;2023-03-11T09:37:26;61.38;;;23.98;;
52067;SDS011;60237;52.338;21.228;2023-03-11T09:39:55;76.22;;;25.17;;
52067;SDS011;60237;52.338;21.228;2023-03-11T09:42:25;80.55;;;24.63;;
52067;SDS011;60237;52.338;21.228;2023-03-11T09:47:32;89.45;;;25.92;;
52067;SDS011;60237;52.338;21.228;2023-03-11T09:50:11;71.05;;;22.95;;
52067;SDS011;60237;52.338;21.228;2023-03-11T09:52:43;77.07;;;22.38;;
52067;SDS011;60237;52.338;21.228;2023-03-11T09:55:20;54.42;;;21.17;;
52067;SDS011;60237;52.338;21.228;2023-03-11T09:57:49;133.95;;;28.65;;
52067;SDS011;60237;52.338;21.228;2023-03-11T10:00:18;98.03;;;27.80;;
52067;SDS011;60237;52.338;21.228;2023-03-11T10:02:45;88.70;;;28.17;;
52067;SDS011;60237;52.338;21.228;2023-03-11T10:05:19;96.70;;;28.08;;
52067;SDS011;60237;52.338;21.228;2023-03-11T10:07:50;103.93;;;27.80;;
52067;SDS011;60237;52.338;21.228;2023-03-11T10:10:19;106.50;;;28.25;;
52067;SDS011;60237;52.338;21.228;2023-03-11T10:20:44;79.35;;;19.33;;
52067;SDS011;60237;52.338;21.228;2023-03-11T10:26:07;70.53;;;13.20;;
52067;SDS011;60237;52.338;21.228;2023-03-11T10:31:24;66.05;;;12.05;;
52067;SDS011;60237;52.338;21.228;2023-03-11T10:36:28;65.65;;;11.85;;
52067;SDS011;60237;52.338;21.228;2023-03-11T10:39:00;36.97;;;9.27;;
52067;SDS011;60237;52.338;21.228;2023-03-11T10:41:28;62.97;;;11.68;;
52067;SDS011;60237;52.338;21.228;2023-03-11T10:44:00;67.18;;;13.07;;
52067;SDS011;60237;52.338;21.228;2023-03-11T10:46:29;31.20;;;9.32;;
52067;SDS011;60237;52.338;21.228;2023-03-11T10:48:55;32.08;;;8.60;;
52067;SDS011;60237;52.338;21.228;2023-03-11T10:51:23;106.72;;;12.68;;
52067;SDS011;60237;52.338;21.228;2023-03-11T10:53:53;50.75;;;9.82;;
52067;SDS011;60237;52.338;21.228;2023-03-11T10:58:49;58.92;;;10.07;;
52067;SDS011;60237;52.338;21.228;2023-03-11T11:01:16;51.63;;;11.13;;
52067;SDS011;60237;52.338;21.228;2023-03-11T11:03:45;55.67;;;11.02;;
52067;SDS011;60237;52.338;21.228;2023-03-11T11:06:23;81.13;;;14.80;;
52067;SDS011;60237;52.338;21.228;2023-03-11T11:09:04;23.15;;;9.88;;
52067;SDS011;60237;52.338;21.228;2023-03-11T11:11:31;90.88;;;14.25;;
52067;SDS011;60237;52.338;21.228;2023-03-11T11:14:00;39.70;;;9.70;;
52067;SDS011;60237;52.338;21.228;2023-03-11T11:16:27;65.97;;;12.30;;
52067;SDS011;60237;52.338;21.228;2023-03-11T11:19:06;50.67;;;10.48;;
52067;SDS011;60237;52.338;21.228;2023-03-11T11:21:37;46.65;;;9.18;;
52067;SDS011;60237;52.338;21.228;2023-03-11T11:24:09;63.45;;;11.57;;
52067;SDS011;60237;52.338;21.228;2023-03-11T11:26:37;53.90;;;11.13;;
52067;SDS011;60237;52.338;21.228;2023-03-11T11:31:36;66.53;;;17.02;;
52067;SDS011;60237;52.338;21.228;2023-03-11T11:34:03;39.67;;;7.68;;
52067;SDS011;60237;52.338;21.228;2023-03-11T11:36:33;62.40;;;7.90;;
52067;SDS011;60237;52.338;21.228;2023-03-11T11:39:01;54.03;;;12.50;;
52067;SDS011;60237;52.338;21.228;2023-03-11T11:41:30;57.28;;;8.98;;
52067;SDS011;60237;52.338;21.228;2023-03-11T11:43:59;71.63;;;8.73;;
52067;SDS011;60237;52.338;21.228;2023-03-11T11:47:01;44.55;;;8.48;;
52067;SDS011;60237;52.338;21.228;2023-03-11T11:49:29;61.85;;;7.78;;
52067;SDS011;60237;52.338;21.228;2023-03-11T11:54:24;57.83;;;7.38;;
52067;SDS011;60237;52.338;21.228;2023-03-11T11:56:53;29.60;;;5.63;;
52067;SDS011;60237;52.338;21.228;2023-03-11T11:59:20;51.92;;;9.63;;
52067;SDS011;60237;52.338;21.228;2023-03-11T12:16:55;26.40;;;5.90;;
52067;SDS011;60237;52.338;21.228;2023-03-11T12:19:36;157.50;;;15.43;;
52067;SDS011;60237;52.338;21.228;2023-03-11T12:22:21;41.70;;;9.02;;
52067;SDS011;60237;52.338;21.228;2023-03-11T12:27:47;55.80;;;9.98;;
52067;SDS011;60237;52.338;21.228;2023-03-11T12:30:16;65.85;;;11.05;;
52067;SDS011;60237;52.338;21.228;2023-03-11T12:32:58;47.95;;;9.07;;
52067;SDS011;60237;52.338;21.228;2023-03-11T12:35:27;74.05;;;11.73;;
52067;SDS011;60237;52.338;21.228;2023-03-11T12:38:01;60.70;;;9.85;;
52067;SDS011;60237;52.338;21.228;2023-03-11T12:45:59;60.83;;;9.95;;
52067;SDS011;60237;52.338;21.228;2023-03-11T12:50:52;45.20;;;8.48;;
52067;SDS011;60237;52.338;21.228;2023-03-11T12:53:19;73.53;;;10.45;;
52067;SDS011;60237;52.338;21.228;2023-03-11T12:58:52;94.90;;;13.98;;
52067;SDS011;60237;52.338;21.228;2023-03-11T13:09:38;45.38;;;9.13;;
52067;SDS011;60237;52.338;21.228;2023-03-11T13:15:13;37.13;;;8.82;;
52067;SDS011;60237;52.338;21.228;2023-03-11T13:17:36;68.03;;;11.30;;
52067;SDS011;60237;52.338;21.228;2023-03-11T13:20:07;82.10;;;11.65;;
52067;SDS011;60237;52.338;21.228;2023-03-11T13:25:29;55.10;;;10.75;;
52067;SDS011;60237;52.338;21.228;2023-03-11T13:27:57;62.15;;;12.82;;
52067;SDS011;60237;52.338;21.228;2023-03-11T13:30:27;112.60;;;18.40;;
52067;SDS011;60237;52.338;21.228;2023-03-11T13:35:53;48.25;;;13.50;;
52067;SDS011;60237;52.338;21.228;2023-03-11T13:38:33;45.00;;;14.30;;
52067;SDS011;60237;52.338;21.228;2023-03-11T13:41:12;63.17;;;16.40;;
52067;SDS011;60237;52.338;21.228;2023-03-11T13:43:42;56.55;;;12.73;;
52067;SDS011;60237;52.338;21.228;2023-03-11T13:46:23;57.85;;;10.85;;
52067;SDS011;60237;52.338;21.228;2023-03-11T13:48:53;63.53;;;14.18;;
52067;SDS011;60237;52.338;21.228;2023-03-11T13:51:23;59.60;;;12.32;;
52067;SDS011;60237;52.338;21.228;2023-03-11T13:56:56;35.30;;;8.95;;
52067;SDS011;60237;52.338;21.228;2023-03-11T13:59:24;29.65;;;9.23;;
52067;SDS011;60237;52.338;21.228;2023-03-11T14:01:53;73.45;;;11.90;;
52067;SDS011;60237;52.338;21.228;2023-03-11T14:04:22;45.10;;;10.35;;
52067;SDS011;60237;52.338;21.228;2023-03-11T14:06:50;41.67;;;9.93;;
52067;SDS011;60237;52.338;21.228;2023-03-11T14:09:18;85.88;;;14.43;;
52067;SDS011;60237;52.338;21.228;2023-03-11T14:11:45;49.15;;;12.27;;
52067;SDS011;60237;52.338;21.228;2023-03-11T14:14:18;61.03;;;12.85;;
52067;SDS011;60237;52.338;21.228;2023-03-11T14:16:52;56.92;;;12.07;;
52067;SDS011;60237;52.338;21.228;2023-03-11T14:19:19;39.20;;;9.95;;
52067;SDS011;60237;52.338;21.228;2023-03-11T14:21:47;87.38;;;12.68;;
52067;SDS011;60237;52.338;21.228;2023-03-11T14:24:15;44.13;;;8.60;;
52067;SDS011;60237;52.338;21.228;2023-03-11T14:26:42;57.22;;;9.77;;
52067;SDS011;60237;52.338;21.228;2023-03-11T14:29:19;46.22;;;7.28;;
52067;SDS011;60237;52.338;21.228;2023-03-11T14:31:46;47.78;;;9.70;;
52067;SDS011;60237;52.338;21.228;2023-03-11T14:34:17;53.58;;;9.55;;
52067;SDS011;60237;52.338;21.228;2023-03-11T14:41:49;84.22;;;11.95;;
52067;SDS011;60237;52.338;21.228;2023-03-11T14:44:17;49.58;;;7.47;;
52067;SDS011;60237;52.338;21.228;2023-03-11T14:46:43;70.68;;;9.07;;
52067;SDS011;60237;52.338;21.228;2023-03-11T14:49:15;66.20;;;8.30;;
52067;SDS011;60237;52.338;21.228;2023-03-11T14:51:42;60.58;;;7.55;;
52067;SDS011;60237;52.338;21.228;2023-03-11T14:56:43;29.83;;;6.25;;
52067;SDS011;60237;52.338;21.228;2023-03-11T14:59:22;36.97;;;5.97;;
52067;SDS011;60237;52.338;21.228;2023-03-11T15:01:52;77.03;;;9.50;;
52067;SDS011;60237;52.338;21.228;2023-03-11T15:06:48;36.90;;;6.90;;
52067;SDS011;60237;52.338;21.228;2023-03-11T15:09:16;33.17;;;7.65;;
52067;SDS011;60237;52.338;21.228;2023-03-11T15:16:43;57.63;;;7.95;;
52067;SDS011;60237;52.338;21.228;2023-03-11T15:22:01;50.30;;;6.82;;
52067;SDS011;60237;52.338;21.228;2023-03-11T15:24:30;76.00;;;9.95;;
52067;SDS011;60237;52.338;21.228;2023-03-11T15:26:58;73.00;;;11.30;;
52067;SDS011;60237;52.338;21.228;2023-03-11T15:29:26;50.03;;;8.95;;
52067;SDS011;60237;52.338;21.228;2023-03-11T15:31:53;63.58;;;7.55;;
52067;SDS011;60237;52.338;21.228;2023-03-11T15:34:21;69.70;;;8.52;;
52067;SDS011;60237;52.338;21.228;2023-03-11T15:39:20;39.05;;;6.93;;
52067;SDS011;60237;52.338;21.228;2023-03-11T15:44:30;54.55;;;7.70;;
52067;SDS011;60237;52.338;21.228;2023-03-11T15:46:58;67.35;;;8.93;;
52067;SDS011;60237;52.338;21.228;2023-03-11T15:49:28;46.22;;;9.20;;
52067;SDS011;60237;52.338;21.228;2023-03-11T15:51:58;46.30;;;6.63;;
52067;SDS011;60237;52.338;21.228;2023-03-11T15:54:25;68.93;;;8.55;;
52067;SDS011;60237;52.338;21.228;2023-03-11T15:56:52;43.50;;;8.50;;
52067;SDS011;60237;52.338;21.228;2023-03-11T15:59:20;25.55;;;5.80;;
52067;SDS011;60237;52.338;21.228;2023-03-11T16:01:47;54.33;;;9.40;;